createdAt,value
2022-11-19T00:01:51.654Z,47.46
2022-11-19T00:04:42.255Z,47.61
2022-11-19T00:07:32.860Z,47.66
2022-11-19T00:10:23.525Z,47.58
2022-11-19T00:13:14.855Z,47.48
2022-11-19T00:16:07.563Z,47.48
2022-11-19T00:18:58.053Z,47.55
2022-11-19T00:21:49.591Z,47.39
2022-11-19T00:24:40.175Z,47.32
2022-11-19T00:27:31.311Z,47.44
2022-11-19T00:30:46.241Z,47.54
2022-11-19T00:33:32.591Z,47.24
2022-11-19T00:36:23.508Z,47.43
2022-11-19T00:39:14.214Z,47.42
2022-11-19T00:42:04.994Z,47.38
2022-11-19T00:44:55.523Z,47.36
2022-11-19T00:47:46.035Z,47.41
2022-11-19T00:50:36.741Z,47.52
2022-11-19T00:53:27.232Z,47.50
2022-11-19T00:56:18.649Z,47.27
2022-11-19T00:59:09.211Z,47.27
2022-11-19T01:01:59.795Z,47.43
2022-11-19T01:04:50.388Z,47.22
2022-11-19T01:07:41.056Z,47.51
2022-11-19T01:10:31.684Z,47.36
2022-11-19T01:13:37.321Z,47.37
2022-11-19T01:16:29.569Z,47.35
2022-11-19T01:19:20.302Z,47.40
2022-11-19T01:22:11.515Z,47.25
2022-11-19T01:25:02.070Z,47.20
2022-11-19T01:27:52.640Z,47.28
2022-11-19T01:30:43.647Z,47.24
2022-11-19T01:33:34.234Z,47.22
2022-11-19T01:36:26.135Z,47.30
2022-11-19T01:39:16.748Z,47.25
2022-11-19T01:42:40.685Z,47.24
2022-11-19T01:45:33.901Z,47.16
2022-11-19T01:48:26.459Z,47.20
2022-11-19T01:51:21.532Z,47.00
2022-11-19T01:54:15.346Z,47.13
2022-11-19T01:57:08.391Z,47.15
2022-11-19T01:59:59.068Z,47.17
2022-11-19T02:02:49.589Z,47.09
2022-11-19T02:05:41.256Z,47.02
2022-11-19T02:08:41.453Z,47.07
2022-11-19T02:12:07.699Z,47.26
2022-11-19T02:15:13.836Z,47.01
2022-11-19T02:18:17.253Z,47.13
2022-11-19T02:21:21.596Z,47.49
2022-11-19T02:24:33.382Z,47.09
2022-11-19T02:27:58.594Z,47.16
2022-11-19T02:30:51.237Z,47.14
2022-11-19T02:33:48.460Z,46.94
2022-11-19T02:36:40.996Z,47.08
2022-11-19T02:39:36.641Z,47.00
2022-11-19T02:42:32.612Z,47.06
2022-11-19T02:45:26.287Z,46.97
2022-11-19T02:48:19.771Z,46.86
2022-11-19T02:51:10.932Z,47.02
2022-11-19T02:54:01.470Z,46.96
2022-11-19T02:56:53.694Z,47.00
2022-11-19T03:00:05.483Z,46.83
2022-11-19T03:03:17.238Z,46.97
2022-11-19T03:06:11.401Z,46.90
2022-11-19T03:09:01.986Z,46.90
2022-11-19T03:12:06.222Z,46.94
2022-11-19T03:15:23.584Z,47.09
2022-11-19T03:18:16.142Z,47.14
2022-11-19T03:21:10.449Z,47.01
2022-11-19T03:24:02.968Z,46.94
2022-11-19T03:26:56.245Z,46.82
2022-11-19T03:29:48.761Z,46.91
2022-11-19T03:32:43.134Z,47.05
2022-11-19T03:35:36.324Z,46.78
2022-11-19T03:38:29.612Z,46.79
2022-11-19T03:41:20.752Z,46.65
2022-11-19T03:44:14.354Z,46.81
2022-11-19T03:47:09.885Z,46.90
2022-11-19T03:50:05.028Z,46.87
2022-11-19T03:52:58.790Z,46.65
2022-11-19T03:55:56.175Z,46.90
2022-11-19T03:58:47.577Z,46.69
2022-11-19T04:01:38.563Z,46.71
2022-11-19T04:04:38.369Z,46.74
2022-11-19T04:07:28.921Z,46.74
2022-11-19T04:10:19.563Z,46.73
2022-11-19T04:13:10.121Z,46.78
2022-11-19T04:16:00.636Z,46.66
2022-11-19T04:18:51.137Z,46.87
2022-11-19T04:21:41.693Z,46.98
2022-11-19T04:24:32.188Z,46.74
2022-11-19T04:27:22.719Z,46.87
2022-11-19T04:30:16.166Z,46.83
2022-11-19T04:33:06.750Z,46.64
2022-11-19T04:35:57.258Z,46.74
2022-11-19T04:38:47.825Z,46.55
2022-11-19T04:41:38.313Z,46.65
2022-11-19T04:44:29.503Z,46.70
2022-11-19T04:47:20.046Z,46.38
2022-11-19T04:50:11.683Z,46.71
2022-11-19T04:53:02.662Z,46.63
2022-11-19T04:55:53.226Z,46.39
2022-11-19T04:58:43.713Z,46.43
2022-11-19T05:01:34.293Z,46.49
2022-11-19T05:04:24.816Z,46.51
2022-11-19T05:07:15.397Z,46.64
2022-11-19T05:10:07.538Z,46.48
2022-11-19T05:12:58.152Z,46.55
2022-11-19T05:15:48.632Z,46.51
2022-11-19T05:18:39.096Z,46.52
2022-11-19T05:21:29.647Z,46.53
2022-11-19T05:24:20.132Z,46.65
2022-11-19T05:27:11.418Z,46.49
2022-11-19T05:30:01.969Z,46.50
2022-11-19T05:32:52.592Z,46.67
2022-11-19T05:35:43.081Z,46.51
2022-11-19T05:38:33.601Z,46.35
2022-11-19T05:41:24.129Z,46.30
2022-11-19T05:44:14.715Z,46.36
2022-11-19T05:47:05.321Z,46.28
2022-11-19T05:49:55.835Z,46.24
2022-11-19T05:52:46.401Z,46.40
2022-11-19T05:55:37.031Z,46.39
2022-11-19T05:58:27.744Z,46.19
2022-11-19T06:01:25.801Z,46.12
2022-11-19T06:04:16.414Z,46.23
2022-11-19T06:07:07.417Z,46.20
2022-11-19T06:09:58.051Z,46.43
2022-11-19T06:12:48.548Z,46.20
2022-11-19T06:15:39.481Z,46.03
2022-11-19T06:18:29.991Z,46.04
2022-11-19T06:21:21.290Z,46.04
2022-11-19T06:24:12.265Z,46.04
2022-11-19T06:27:02.744Z,46.13
2022-11-19T06:29:56.229Z,46.08
2022-11-19T06:32:47.072Z,46.08
2022-11-19T06:35:38.282Z,46.24
2022-11-19T06:38:28.760Z,46.07
2022-11-19T06:41:19.344Z,46.30
2022-11-19T06:44:09.832Z,46.14
2022-11-19T06:47:00.391Z,46.12
2022-11-19T06:49:50.995Z,46.11
2022-11-19T06:52:42.004Z,46.05
2022-11-19T06:55:32.554Z,46.00
2022-11-19T06:58:23.134Z,45.95
2022-11-19T07:01:14.637Z,45.97
2022-11-19T07:04:05.627Z,45.67
2022-11-19T07:06:56.301Z,45.63
2022-11-19T07:09:46.932Z,45.55
2022-11-19T07:12:37.904Z,45.66
2022-11-19T07:15:28.490Z,45.51
2022-11-19T07:18:19.121Z,45.65
2022-11-19T07:21:09.643Z,45.81
2022-11-19T07:24:01.046Z,45.70
2022-11-19T07:26:51.607Z,45.82
2022-11-19T07:29:42.269Z,45.77
2022-11-19T07:32:33.059Z,45.71
2022-11-19T07:35:23.712Z,45.80
2022-11-19T07:38:14.303Z,45.75
2022-11-19T07:41:27.517Z,45.67
2022-11-19T07:44:18.297Z,45.55
2022-11-19T07:47:09.360Z,45.49
2022-11-19T07:54:00.261Z,45.44
2022-11-19T07:56:51.078Z,45.35
2022-11-19T07:59:41.895Z,45.77
2022-11-19T08:02:32.622Z,45.50
2022-11-19T08:05:23.749Z,45.51
2022-11-19T08:08:14.620Z,46.08
2022-11-19T08:11:07.216Z,45.89
2022-11-19T08:13:59.539Z,46.14
2022-11-19T08:17:08.171Z,46.17
2022-11-19T08:19:58.869Z,46.32
2022-11-19T08:22:49.815Z,46.43
2022-11-19T08:25:41.700Z,46.47
2022-11-19T08:28:32.239Z,46.52
2022-11-19T08:31:22.851Z,46.49
2022-11-19T08:34:13.712Z,46.88
2022-11-19T08:37:04.380Z,46.91
2022-11-19T08:39:55.059Z,46.80
2022-11-19T08:43:00.878Z,46.47
2022-11-19T08:45:54.101Z,46.39
2022-11-19T08:48:48.925Z,46.56
2022-11-19T08:51:39.541Z,46.38
2022-11-19T08:54:30.177Z,46.82
2022-11-19T08:57:21.194Z,46.70
2022-11-19T09:00:15.985Z,46.58
2022-11-19T09:03:07.314Z,46.49
2022-11-19T09:06:01.208Z,46.48
2022-11-19T09:08:51.856Z,46.54
2022-11-19T09:11:43.280Z,46.34
2022-11-19T09:14:33.767Z,45.78
2022-11-19T09:17:24.486Z,45.08
2022-11-19T09:20:15.202Z,44.03
2022-11-19T09:23:05.815Z,43.92
2022-11-19T09:26:01.039Z,44.18
2022-11-19T09:28:52.579Z,45.16
2022-11-19T09:31:43.192Z,44.92
2022-11-19T09:34:34.632Z,44.71
2022-11-19T09:37:25.636Z,44.80
2022-11-19T09:40:20.491Z,45.04
2022-11-19T09:43:20.244Z,44.83
2022-11-19T09:46:16.561Z,44.84
2022-11-19T09:49:10.268Z,44.86
2022-11-19T09:52:04.496Z,45.15
2022-11-19T09:54:56.786Z,45.17
2022-11-19T09:57:50.829Z,44.80
2022-11-19T10:00:41.428Z,45.09
2022-11-19T10:03:33.849Z,45.08
2022-11-19T10:06:31.144Z,45.11
2022-11-19T10:09:35.776Z,45.09
2022-11-19T10:12:39.073Z,45.17
2022-11-19T10:15:37.164Z,45.19
2022-11-19T10:18:34.829Z,45.02
2022-11-19T10:21:28.372Z,45.11
2022-11-19T10:24:25.662Z,45.08
2022-11-19T10:27:23.587Z,45.10
2022-11-19T10:30:18.535Z,45.41
2022-11-19T10:33:14.861Z,45.53
2022-11-19T10:36:08.131Z,45.10
2022-11-19T10:39:03.340Z,45.24
2022-11-19T10:41:57.489Z,45.44
2022-11-19T10:44:51.054Z,45.26
2022-11-19T10:47:47.278Z,45.35
2022-11-19T10:50:36.883Z,45.36
2022-11-19T10:53:29.484Z,45.21
2022-11-19T10:56:22.412Z,45.17
2022-11-19T10:59:18.384Z,45.05
2022-11-19T11:02:28.035Z,45.08
2022-11-19T11:05:19.991Z,45.14
2022-11-19T11:08:12.157Z,45.37
2022-11-19T11:11:02.647Z,45.47
2022-11-19T11:14:11.440Z,45.17
2022-11-19T11:17:02.231Z,45.39
2022-11-19T11:20:04.139Z,45.26
2022-11-19T11:23:05.663Z,45.19
2022-11-19T11:26:02.557Z,45.30
2022-11-19T11:29:00.212Z,45.25
2022-11-19T11:31:50.967Z,45.16
2022-11-19T11:34:44.128Z,45.41
2022-11-19T11:37:34.889Z,45.25
2022-11-19T11:40:25.587Z,45.26
2022-11-19T11:43:18.945Z,45.54
2022-11-19T11:46:10.774Z,45.23
2022-11-19T11:49:08.281Z,45.48
2022-11-19T11:52:17.952Z,44.97
2022-11-19T11:55:13.450Z,45.11
2022-11-19T11:58:05.168Z,45.34
2022-11-19T12:01:15.306Z,45.61
2022-11-19T12:04:11.922Z,45.40
2022-11-19T12:07:12.939Z,45.17
2022-11-19T12:10:14.066Z,45.63
2022-11-19T12:13:49.663Z,45.37
2022-11-19T12:16:50.383Z,45.29
2022-11-19T12:19:58.714Z,45.43
2022-11-19T12:23:06.316Z,45.42
2022-11-19T12:26:12.124Z,45.20
2022-11-19T12:29:13.301Z,45.11
2022-11-19T12:32:23.864Z,45.17
2022-11-19T12:35:22.926Z,45.57
2022-11-19T12:38:32.537Z,45.31
2022-11-19T12:41:53.108Z,45.50
2022-11-19T12:44:48.539Z,45.49
2022-11-19T12:47:57.340Z,45.70
2022-11-19T12:50:51.698Z,45.44
2022-11-19T12:53:55.055Z,45.67
2022-11-19T12:56:52.280Z,45.64
2022-11-19T12:59:54.788Z,45.85
2022-11-19T13:02:55.306Z,45.93
2022-11-19T13:05:49.568Z,45.69
2022-11-19T13:08:43.201Z,45.65
2022-11-19T13:11:36.858Z,45.89
2022-11-19T13:14:32.251Z,45.53
2022-11-19T13:17:26.102Z,45.72
2022-11-19T13:20:21.636Z,45.83
2022-11-19T13:23:16.450Z,45.89
2022-11-19T13:26:09.601Z,46.07
2022-11-19T13:29:14.295Z,46.01
2022-11-19T13:32:11.587Z,45.96
2022-11-19T13:35:13.672Z,45.99
2022-11-19T13:38:11.864Z,45.96
2022-11-19T13:41:07.832Z,46.34
2022-11-19T13:44:16.715Z,46.44
2022-11-19T13:47:13.822Z,46.19
2022-11-19T13:50:08.259Z,46.38
2022-11-19T13:53:01.314Z,46.05
2022-11-19T13:55:55.780Z,46.17
2022-11-19T13:58:48.577Z,46.17
2022-11-19T14:02:12.383Z,46.13
2022-11-19T14:05:59.545Z,46.11
2022-11-19T14:09:04.453Z,46.25
2022-11-19T14:12:22.799Z,45.90
2022-11-19T14:15:53.253Z,46.17
2022-11-19T14:19:03.375Z,46.13
2022-11-19T14:22:12.945Z,46.08
2022-11-19T14:25:23.224Z,46.17
2022-11-19T14:28:45.850Z,46.16
2022-11-19T14:32:05.648Z,46.06
2022-11-19T14:35:33.900Z,46.19
2022-11-19T14:38:37.525Z,46.23
2022-11-19T14:41:33.354Z,46.14
2022-11-19T14:44:37.245Z,46.28
2022-11-19T14:47:36.649Z,45.98
2022-11-19T14:50:28.689Z,46.00
2022-11-19T14:53:21.248Z,46.11
2022-11-19T14:56:13.194Z,46.14
2022-11-19T14:59:17.782Z,46.16
2022-11-19T15:02:20.987Z,45.77
2022-11-19T15:05:19.824Z,46.22
2022-11-19T15:08:48.824Z,46.11
2022-11-19T15:12:00.535Z,45.88
2022-11-19T15:15:06.557Z,46.11
2022-11-19T15:18:13.742Z,46.17
2022-11-19T15:21:17.529Z,45.80
2022-11-19T15:24:16.956Z,45.81
2022-11-19T15:27:17.280Z,46.01
2022-11-19T15:30:16.486Z,45.77
2022-11-19T15:33:31.861Z,45.95
2022-11-19T15:36:35.172Z,45.72
2022-11-19T15:39:28.614Z,45.98
2022-11-19T15:42:25.740Z,45.74
2022-11-19T15:45:18.565Z,45.63
2022-11-19T15:48:13.064Z,45.95
2022-11-19T15:51:04.175Z,45.98
2022-11-19T15:54:02.420Z,45.72
2022-11-19T15:56:52.974Z,45.80
2022-11-19T15:59:44.129Z,45.90
2022-11-19T16:02:37.577Z,46.36
2022-11-19T16:05:32.079Z,45.95
2022-11-19T16:08:22.664Z,46.17
2022-11-19T16:11:34.899Z,46.23
2022-11-19T16:14:45.217Z,45.93
2022-11-19T16:17:44.141Z,46.42
2022-11-19T16:20:35.056Z,46.10
2022-11-19T16:23:26.162Z,46.21
2022-11-19T16:26:16.721Z,46.29
2022-11-19T16:29:07.284Z,46.24
2022-11-19T16:31:59.531Z,46.17
2022-11-19T16:34:50.117Z,46.42
2022-11-19T16:37:40.677Z,46.46
2022-11-19T16:40:52.595Z,46.60
2022-11-19T16:43:44.276Z,46.53
2022-11-19T16:46:35.002Z,46.51
2022-11-19T16:49:32.978Z,46.42
2022-11-19T16:52:38.984Z,46.50
2022-11-19T16:55:54.063Z,46.52
2022-11-19T16:58:45.583Z,46.60
2022-11-19T17:01:36.182Z,46.76
2022-11-19T17:04:28.507Z,46.82
2022-11-19T17:07:24.423Z,46.65
2022-11-19T17:10:30.699Z,46.50
2022-11-19T17:13:30.521Z,46.62
2022-11-19T17:16:24.027Z,46.70
2022-11-19T17:19:24.424Z,46.66
2022-11-19T17:22:19.081Z,46.58
2022-11-19T17:25:14.686Z,46.61
2022-11-19T17:28:05.696Z,46.67
2022-11-19T17:30:56.393Z,46.70
2022-11-19T17:33:55.149Z,46.86
2022-11-19T17:36:45.837Z,46.83
2022-11-19T17:39:36.853Z,46.80
2022-11-19T17:42:45.774Z,46.83
2022-11-19T17:45:36.291Z,46.74
2022-11-19T17:48:28.056Z,47.00
2022-11-19T17:51:20.627Z,46.88
2022-11-19T17:54:12.649Z,46.93
2022-11-19T17:57:03.264Z,46.67
2022-11-19T17:59:53.857Z,46.79
2022-11-19T18:02:48.127Z,46.88
2022-11-19T18:05:38.813Z,46.84
2022-11-19T18:08:29.769Z,46.72
2022-11-19T18:11:22.007Z,46.63
2022-11-19T18:14:13.789Z,46.61
2022-11-19T18:17:04.429Z,46.73
2022-11-19T18:19:55.109Z,46.27
2022-11-19T18:22:47.270Z,46.56
2022-11-19T18:25:38.508Z,46.28
2022-11-19T18:28:29.182Z,46.62
2022-11-19T18:31:21.732Z,46.50
2022-11-19T18:34:16.068Z,46.30
2022-11-19T18:37:06.913Z,46.23
2022-11-19T18:39:57.568Z,46.08
2022-11-19T18:43:06.553Z,46.31
2022-11-19T18:45:57.322Z,46.16
2022-11-19T18:48:48.219Z,46.13
2022-11-19T18:51:38.942Z,46.24
2022-11-19T18:54:29.647Z,46.03
2022-11-19T18:57:20.308Z,46.03
2022-11-19T19:00:14.871Z,46.16
2022-11-19T19:03:10.445Z,45.91
2022-11-19T19:06:03.168Z,45.98
2022-11-19T19:08:54.155Z,46.10
2022-11-19T19:12:03.299Z,45.91
2022-11-19T19:14:55.395Z,45.84
2022-11-19T19:17:46.047Z,46.04
2022-11-19T19:20:36.850Z,45.93
2022-11-19T19:23:27.901Z,45.83
2022-11-19T19:26:19.610Z,46.01
2022-11-19T19:29:10.561Z,45.80
2022-11-19T19:32:01.750Z,45.89
2022-11-19T19:34:52.394Z,46.02
2022-11-19T19:37:43.035Z,46.01
2022-11-19T19:40:34.001Z,45.82
2022-11-19T19:43:24.629Z,45.60
2022-11-19T19:46:16.660Z,45.91
2022-11-19T19:49:07.794Z,45.94
2022-11-19T19:51:58.763Z,45.56
2022-11-19T19:54:49.747Z,45.80
2022-11-19T19:57:40.322Z,45.60
2022-11-19T20:00:31.053Z,45.62
2022-11-19T20:03:26.243Z,45.88
2022-11-19T20:06:18.349Z,45.91
2022-11-19T20:09:09.650Z,45.64
2022-11-19T20:12:00.736Z,45.86
2022-11-19T20:14:51.436Z,45.55
2022-11-19T20:17:42.069Z,45.59
2022-11-19T20:20:32.741Z,45.56
2022-11-19T20:23:23.781Z,45.55
2022-11-19T20:26:15.985Z,45.61
2022-11-19T20:29:08.321Z,45.68
2022-11-19T20:31:59.017Z,45.28
2022-11-19T20:34:49.726Z,45.44
2022-11-19T20:37:41.091Z,45.12
2022-11-19T20:40:32.542Z,45.11
2022-11-19T20:43:46.821Z,45.45
2022-11-19T20:46:39.691Z,45.32
2022-11-19T20:49:31.792Z,45.19
2022-11-19T20:52:22.439Z,45.21
2022-11-19T20:55:13.302Z,45.28
2022-11-19T20:58:05.042Z,45.08
2022-11-19T21:01:02.564Z,44.91
2022-11-19T21:03:53.812Z,45.29
2022-11-19T21:06:44.557Z,44.89
2022-11-19T21:09:35.774Z,44.81
2022-11-19T21:12:27.581Z,44.81
2022-11-19T21:15:18.481Z,45.02
2022-11-19T21:18:09.162Z,44.93
2022-11-19T21:21:02.445Z,44.59
2022-11-19T21:23:53.476Z,44.75
2022-11-19T21:26:44.426Z,44.84
2022-11-19T21:29:37.700Z,44.52
2022-11-19T21:32:28.815Z,44.76
2022-11-19T21:35:19.791Z,44.66
2022-11-19T21:38:12.336Z,44.39
2022-11-19T21:41:03.405Z,44.45
2022-11-19T21:43:53.980Z,44.39
2022-11-19T21:47:22.309Z,44.50
2022-11-19T21:50:13.030Z,44.38
2022-11-19T21:53:03.863Z,44.16
2022-11-19T21:55:54.498Z,44.13
2022-11-19T21:58:45.118Z,44.30
2022-11-19T22:01:35.900Z,44.17
2022-11-19T22:04:26.622Z,44.22
2022-11-19T22:07:17.336Z,44.36
2022-11-19T22:10:09.857Z,44.32
2022-11-19T22:13:00.601Z,44.33
2022-11-19T22:15:51.543Z,44.50
2022-11-19T22:18:42.199Z,44.45
2022-11-19T22:21:32.909Z,44.48
2022-11-19T22:24:23.615Z,44.49
2022-11-19T22:27:14.258Z,44.51
2022-11-19T22:30:07.153Z,44.51
2022-11-19T22:32:57.694Z,44.52
2022-11-19T22:35:48.373Z,44.53
2022-11-19T22:38:39.334Z,44.47
2022-11-19T22:41:30.929Z,44.52
2022-11-19T22:44:21.965Z,44.61
2022-11-19T22:47:14.067Z,44.75
2022-11-19T22:50:06.412Z,44.47
2022-11-19T22:52:57.107Z,44.64
2022-11-19T23:00:55.375Z,44.61
2022-11-19T23:03:50.982Z,44.60
2022-11-19T23:06:45.806Z,44.59
2022-11-19T23:09:41.501Z,44.57
2022-11-19T23:12:54.251Z,44.51
2022-11-19T23:15:58.773Z,44.65
2022-11-19T23:18:55.040Z,44.58
2022-11-19T23:21:50.140Z,44.56
2022-11-19T23:24:47.875Z,44.42
2022-11-19T23:27:42.778Z,44.50
2022-11-19T23:30:37.592Z,44.49
2022-11-19T23:33:32.443Z,44.56
2022-11-19T23:36:28.960Z,44.46
2022-11-19T23:39:24.021Z,44.55
2022-11-19T23:42:18.959Z,44.43
2022-11-19T23:45:15.460Z,44.53
2022-11-19T23:48:11.005Z,44.58
2022-11-19T23:51:07.536Z,44.46
2022-11-19T23:54:02.485Z,44.37
2022-11-19T23:56:59.885Z,44.44
2022-11-19T23:59:54.571Z,44.48
